Aérodrome :
LOGIN :

S'inscrire | Disclaimer

   EN    FR    IT 

 










Légende :    VFR   VFR Marginal   IFR   IFR Intensif   IFR Très Intensif
Visi : 
Plafond : 
>= 8 km
>= 3000ft
5 à 8 km
1000 à 3000 ft
1500m à 5 km
500 à 1000 ft
800 à 1500m
200 à 500 ft
< 800m
< 200 ft
Symboles :   Orages  Brouillard  Fortes neiges  Fortes précipitations  Vent > 20 kt
SIGMETs :   Divers  Orages  Givrage  Turbulence  Onde Orograph.  Cendres Volcan.







- Altitude de l'aérodrome : 584 ft
- Voir les cartes d'approche


LFPV - Villacoublay Vélizy

DERNIER METAR :
  • 281200Z AUTO VRB03KT 9999 SCT035 BKN045 BKN056 11/03 Q1016 BECMG SCT020 SCT030TCU

METARs EXPIRÉS :
  • 281130Z AUTO VRB02KT 9999 BKN029 BKN054 BKN090 12/04 Q1016 BECMG SCT020 SCT030TCU
  • 281100Z AUTO 32004KT 280V030 9999 FEW018/// SCT033/// ///TCU 11/05 Q1017 NOSIG
  • 281030Z AUTO 31007KT 270V340 9999 SCT014/// BKN019/// BKN026/// ///CB 09/05 Q1017 NOSIG
  • 281000Z AUTO 32005KT 270V350 9999 BKN009 BKN016 09/06 Q1017 BECMG SCT020 SCT030TCU
  • 280930Z AUTO 30006KT 270V340 9999 BKN009 BKN013 OVC024 08/06 Q1017 BECMG SCT020 SCT030TCU

TAF AMD TAF LFPV
Valide du 28 à 09h jusqu'au 29 à 09h UTC


280800Z 2809/2909 28005KT 9999 BKN006 BKN012
BECMG 2809/2810 SCT020 SCT030TCU
TEMPO 2810/2820 5000 -SHRA BKN020
BECMG 2820/2822 VRB02KT 2000 BR OVC002
TEMPO 2822/2907 0300 FG VV///
BECMG 2908/2909 6000 NSW BKN005
Pas de NOTAMs connus pour ce terrain.



MET'MAP, la Météo Aéronautique d'un coup d'oeil ! - Copyright ORBIFLY Décembre 2007 - Disclaimer

ORBIFLY MET'MAP TEAM :

Programmation & Développement : Alexandra Zaïnal
Conception & Développement : Baudouin d'Aumeries
Co-Programmation & Développement : Marc-Olivier Méhu
Soutien technique & logistique : Manuel Goepfert

Contact : metmap@orbifly.com




SOURCES & CREDITS :

   NOAA